createdAt,value
2018-07-17T00:01:16.323Z,100843.36
2018-07-17T00:04:21.445Z,100843.36
2018-07-17T00:07:26.645Z,100844.05
2018-07-17T00:10:31.540Z,100850.74
2018-07-17T00:13:36.684Z,100856.87
2018-07-17T00:16:41.596Z,100858.39
2018-07-17T00:19:46.518Z,100858.23
2018-07-17T00:22:51.712Z,100848.67
2018-07-17T00:25:57.351Z,100853.81
2018-07-17T00:29:03.267Z,100855.34
2018-07-17T00:32:09.376Z,100851.21
2018-07-17T00:35:16.395Z,100846.45
2018-07-17T00:38:22.100Z,100835.91
2018-07-17T00:41:28.213Z,100837.80
2018-07-17T00:44:33.787Z,100836.80
2018-07-17T00:47:38.680Z,100834.21
2018-07-17T00:50:43.849Z,100836.78
2018-07-17T00:53:50.661Z,100829.31
2018-07-17T00:56:55.961Z,100822.12
2018-07-17T01:00:01.149Z,100821.16
2018-07-17T01:03:14.025Z,100819.70
2018-07-17T01:06:26.658Z,100815.69
2018-07-17T01:09:37.579Z,100808.68
2018-07-17T01:12:42.204Z,100809.98
2018-07-17T01:15:47.880Z,100808.55
2018-07-17T01:18:53.986Z,100809.34
2018-07-17T01:21:59.010Z,100804.64
2018-07-17T01:25:05.021Z,100804.22
2018-07-17T01:28:10.595Z,100809.98
2018-07-17T01:31:16.333Z,100802.05
2018-07-17T01:34:21.985Z,100805.68
2018-07-17T01:37:27.049Z,100796.95
2018-07-17T01:40:31.913Z,100800.30
2018-07-17T01:43:37.759Z,100804.05
2018-07-17T01:46:43.814Z,100811.93
2018-07-17T01:49:49.004Z,100800.49
2018-07-17T01:52:53.853Z,100797.08
2018-07-17T01:55:59.113Z,100801.73
2018-07-17T01:59:04.531Z,100799.71
2018-07-17T02:02:10.850Z,100798.71
2018-07-17T02:05:16.123Z,100801.98
2018-07-17T02:08:20.929Z,100794.33
2018-07-17T02:11:25.783Z,100801.02
2018-07-17T02:14:31.674Z,100796.48
2018-07-17T02:17:37.522Z,100805.55
2018-07-17T02:20:42.386Z,100802.78
2018-07-17T02:23:48.235Z,100810.77
2018-07-17T02:26:54.800Z,100811.34
2018-07-17T02:30:00.611Z,100811.16
2018-07-17T02:33:06.628Z,100811.95
2018-07-17T02:36:13.852Z,100803.36
2018-07-17T02:39:19.527Z,100804.75
2018-07-17T02:42:25.359Z,100800.13
2018-07-17T02:45:31.321Z,100795.01
2018-07-17T02:48:36.125Z,100792.06
2018-07-17T02:51:41.717Z,100790.59
2018-07-17T02:54:48.433Z,100784.91
2018-07-17T02:57:54.086Z,100784.54
2018-07-17T03:00:58.924Z,100787.77
2018-07-17T03:04:04.914Z,100792.48
2018-07-17T03:07:14.322Z,100792.22
2018-07-17T03:10:20.555Z,100802.78
2018-07-17T03:13:26.285Z,100799.22
2018-07-17T03:16:32.133Z,100799.94
2018-07-17T03:19:37.042Z,100794.79
2018-07-17T03:22:43.454Z,100790.19
2018-07-17T03:25:49.207Z,100792.41
2018-07-17T03:28:54.637Z,100793.91
2018-07-17T03:31:59.849Z,100787.98
2018-07-17T03:35:18.452Z,100790.67
2018-07-17T03:38:27.061Z,100796.16
2018-07-17T03:41:32.997Z,100797.09
2018-07-17T03:44:38.672Z,100795.50
2018-07-17T03:47:44.425Z,100796.53
2018-07-17T03:50:59.578Z,100795.14
2018-07-17T03:54:08.052Z,100790.17
2018-07-17T03:57:14.287Z,100791.57
2018-07-17T04:00:19.130Z,100789.55
2018-07-17T04:03:24.981Z,100789.19
2018-07-17T04:06:30.431Z,100789.47
2018-07-17T04:09:36.180Z,100787.53
2018-07-17T04:12:40.955Z,100782.17
2018-07-17T04:15:47.705Z,100785.89
2018-07-17T04:18:54.520Z,100791.89
2018-07-17T04:22:00.255Z,100785.79
2018-07-17T04:25:05.103Z,100782.37
2018-07-17T04:28:10.581Z,100790.23
2018-07-17T04:31:16.425Z,100803.52
2018-07-17T04:34:21.288Z,100806.11
2018-07-17T04:37:26.680Z,100811.54
2018-07-17T04:40:32.436Z,100812.47
2018-07-17T04:43:37.298Z,100812.27
2018-07-17T04:46:42.526Z,100813.56
2018-07-17T04:49:47.369Z,100826.13
2018-07-17T04:52:52.591Z,100824.27
2018-07-17T04:55:57.719Z,100825.02
2018-07-17T04:59:03.471Z,100821.66
2018-07-17T05:02:10.188Z,100816.86
2018-07-17T05:05:16.130Z,100808.02
2018-07-17T05:08:21.306Z,100807.80
2018-07-17T05:11:27.169Z,100818.61
2018-07-17T05:14:32.756Z,100815.00
2018-07-17T05:17:38.905Z,100819.06
2018-07-17T05:20:44.878Z,100813.84
2018-07-17T05:23:51.452Z,100825.00
2018-07-17T05:26:56.690Z,100823.32
2018-07-17T05:30:01.534Z,100821.33
2018-07-17T05:33:07.718Z,100820.80
2018-07-17T05:36:14.868Z,100819.95
2018-07-17T05:39:20.448Z,100816.94
2018-07-17T05:42:25.261Z,100821.73
2018-07-17T05:45:30.974Z,100820.39
2018-07-17T05:48:36.252Z,100820.91
2018-07-17T05:51:41.092Z,100823.13
2018-07-17T05:54:47.821Z,100816.33
2018-07-17T05:57:53.526Z,100820.64
2018-07-17T06:00:58.717Z,100819.85
2018-07-17T06:04:03.557Z,100823.23
2018-07-17T06:07:08.738Z,100814.55
2018-07-17T06:10:14.555Z,100808.96
2018-07-17T06:13:19.572Z,100806.31
2018-07-17T06:16:25.091Z,100820.02
2018-07-17T06:19:29.956Z,100817.84
2018-07-17T06:22:36.150Z,100822.03
2018-07-17T06:25:41.917Z,100818.88
2018-07-17T06:28:47.345Z,100818.70
2018-07-17T06:31:53.097Z,100827.59
2018-07-17T06:34:59.039Z,100827.42
2018-07-17T06:38:05.781Z,100828.53
2018-07-17T06:41:10.645Z,100836.95
2018-07-17T06:44:15.949Z,100826.75
2018-07-17T06:47:21.625Z,100827.27
2018-07-17T06:50:27.049Z,100832.27
2018-07-17T06:53:32.933Z,100835.12
2018-07-17T06:56:38.195Z,100832.19
2018-07-17T06:59:45.195Z,100838.00
2018-07-17T07:02:50.318Z,100838.97
2018-07-17T07:05:55.561Z,100835.22
2018-07-17T07:09:02.336Z,100834.53
2018-07-17T07:12:09.013Z,100842.84
2018-07-17T07:15:15.110Z,100839.91
2018-07-17T07:18:19.998Z,100836.61
2018-07-17T07:21:25.750Z,100841.45
2018-07-17T07:24:31.297Z,100842.75
2018-07-17T07:27:36.459Z,100838.58
2018-07-17T07:30:41.309Z,100836.09
2018-07-17T07:33:46.129Z,100841.40
2018-07-17T07:36:51.616Z,100829.32
2018-07-17T07:39:56.469Z,100829.45
2018-07-17T07:43:02.559Z,100826.94
2018-07-17T07:46:07.857Z,100827.38
2018-07-17T07:49:12.766Z,100826.98
2018-07-17T07:52:18.740Z,100836.53
2018-07-17T07:55:25.515Z,100832.33
2018-07-17T07:58:31.354Z,100832.88
2018-07-17T08:01:36.189Z,100834.94
2018-07-17T08:04:41.119Z,100832.27
2018-07-17T08:07:46.068Z,100827.02
2018-07-17T08:10:51.433Z,100829.42
2018-07-17T08:13:57.205Z,100829.58
2018-07-17T08:17:02.561Z,100831.95
2018-07-17T08:20:07.730Z,100824.04
2018-07-17T08:23:12.606Z,100831.01
2018-07-17T08:26:17.857Z,100830.91
2018-07-17T08:29:22.725Z,100828.42
2018-07-17T08:32:28.590Z,100825.20
2018-07-17T08:35:34.324Z,100823.53
2018-07-17T08:38:40.134Z,100821.80
2018-07-17T08:41:45.325Z,100826.46
2018-07-17T08:44:50.178Z,100823.45
2018-07-17T08:47:56.156Z,100819.13
2018-07-17T08:51:01.739Z,100817.84
2018-07-17T08:54:07.700Z,100813.61
2018-07-17T08:57:13.490Z,100822.33
2018-07-17T09:00:18.551Z,100814.16
2018-07-17T09:03:23.601Z,100808.44
2018-07-17T09:06:29.526Z,100809.77
2018-07-17T09:09:35.226Z,100810.61
2018-07-17T09:12:40.859Z,100813.20
2018-07-17T09:15:46.049Z,100814.81
2018-07-17T09:18:51.810Z,100813.63
2018-07-17T09:21:57.192Z,100819.33
2018-07-17T09:25:02.953Z,100822.27
2018-07-17T09:28:08.222Z,100820.56
2018-07-17T09:31:13.327Z,100827.05
2018-07-17T09:34:18.157Z,100822.22
2018-07-17T09:37:24.321Z,100812.98
2018-07-17T09:40:30.437Z,100809.80
2018-07-17T09:43:35.295Z,100821.34
2018-07-17T09:46:40.145Z,100814.19
2018-07-17T09:49:45.428Z,100821.94
2018-07-17T09:52:51.270Z,100814.94
2018-07-17T09:55:56.129Z,100817.78
2018-07-17T09:59:01.471Z,100815.88
2018-07-17T10:02:12.540Z,100817.23
2018-07-17T10:05:17.649Z,100817.07
2018-07-17T10:08:23.553Z,100814.94
2018-07-17T10:11:29.714Z,100823.69
2018-07-17T10:14:34.891Z,100820.37
2018-07-17T10:17:40.102Z,100820.53
2018-07-17T10:20:47.320Z,100824.17
2018-07-17T10:23:52.902Z,100823.84
2018-07-17T10:26:58.964Z,100824.81
2018-07-17T10:30:04.250Z,100820.37
2018-07-17T10:33:10.374Z,100821.52
2018-07-17T10:36:15.940Z,100822.86
2018-07-17T10:39:20.801Z,100823.33
2018-07-17T10:42:26.049Z,100820.69
2018-07-17T10:45:31.221Z,100824.13
2018-07-17T10:48:37.410Z,100822.98
2018-07-17T10:51:43.227Z,100822.11
2018-07-17T10:54:48.045Z,100820.95
2018-07-17T10:57:53.325Z,100825.91
2018-07-17T11:00:58.191Z,100817.00
2018-07-17T11:04:05.077Z,100818.79
2018-07-17T11:07:09.921Z,100814.67
2018-07-17T11:10:14.777Z,100810.20
2018-07-17T11:13:20.648Z,100803.44
2018-07-17T11:16:26.205Z,100801.16
2018-07-17T11:19:33.026Z,100792.28
2018-07-17T11:22:37.882Z,100798.50
2018-07-17T11:25:43.273Z,100808.68
2018-07-17T11:28:48.128Z,100802.25
2018-07-17T11:31:53.033Z,100798.16
2018-07-17T11:34:58.380Z,100798.77
2018-07-17T11:38:04.545Z,100789.87
2018-07-17T11:41:11.691Z,100795.27
2018-07-17T11:44:17.349Z,100791.47
2018-07-17T11:47:22.505Z,100787.48
2018-07-17T11:50:27.601Z,100793.39
2018-07-17T11:53:32.457Z,100782.35
2018-07-17T11:56:37.555Z,100782.34
2018-07-17T11:59:42.405Z,100783.13
2018-07-17T12:02:47.263Z,100781.30
2018-07-17T12:05:53.605Z,100779.77
2018-07-17T12:08:58.650Z,100777.59
2018-07-17T12:12:03.526Z,100780.89
2018-07-17T12:15:08.886Z,100773.63
2018-07-17T12:18:13.859Z,100772.98
2018-07-17T12:21:20.649Z,100772.63
2018-07-17T12:24:25.567Z,100774.40
2018-07-17T12:27:30.902Z,100777.66
2018-07-17T12:30:36.705Z,100774.98
2018-07-17T12:33:41.894Z,100769.19
2018-07-17T12:36:48.027Z,100769.19
2018-07-17T12:39:53.970Z,100766.83
2018-07-17T12:43:00.073Z,100767.59
2018-07-17T12:46:06.118Z,100765.77
2018-07-17T12:49:13.100Z,100770.52
2018-07-17T12:52:20.168Z,100758.45
2018-07-17T12:55:25.927Z,100765.30
2018-07-17T12:58:30.799Z,100762.30
2018-07-17T13:01:36.146Z,100760.66
2018-07-17T13:04:41.000Z,100769.05
2018-07-17T13:07:46.906Z,100768.69
2018-07-17T13:10:52.794Z,100767.23
2018-07-17T13:13:58.366Z,100757.70
2018-07-17T13:17:03.222Z,100750.59
2018-07-17T13:20:08.117Z,100749.78
2018-07-17T13:23:12.997Z,100749.86
2018-07-17T13:26:19.205Z,100742.05
2018-07-17T13:29:25.192Z,100746.08
2018-07-17T13:32:31.048Z,100745.05
2018-07-17T13:35:36.701Z,100749.95
2018-07-17T13:38:42.488Z,100755.33
2018-07-17T13:41:47.359Z,100754.27
2018-07-17T13:44:53.220Z,100751.41
2018-07-17T13:47:58.518Z,100751.70
2018-07-17T13:51:04.365Z,100741.42
2018-07-17T13:54:09.252Z,100745.63
2018-07-17T13:57:16.533Z,100733.16
2018-07-17T14:00:22.663Z,100730.41
2018-07-17T14:03:28.526Z,100733.42
2018-07-17T14:06:35.553Z,100731.23
2018-07-17T14:09:41.240Z,100730.47
2018-07-17T14:12:47.005Z,100734.33
2018-07-17T14:15:52.278Z,100731.29
2018-07-17T14:18:57.124Z,100739.64
2018-07-17T14:22:02.487Z,100740.08
2018-07-17T14:25:07.321Z,100732.42
2018-07-17T14:28:14.105Z,100733.58
2018-07-17T14:31:19.901Z,100735.29
2018-07-17T14:34:26.649Z,100731.08
2018-07-17T14:37:32.081Z,100728.55
2018-07-17T14:40:36.897Z,100719.92
2018-07-17T14:43:41.738Z,100718.72
2018-07-17T14:46:47.580Z,100721.92
2018-07-17T14:49:53.093Z,100714.62
2018-07-17T14:52:58.214Z,100715.74
2018-07-17T14:56:03.993Z,100721.09
2018-07-17T14:59:09.602Z,100710.32
2018-07-17T15:02:15.698Z,100714.43
2018-07-17T15:05:21.133Z,100714.18
2018-07-17T15:08:26.105Z,100714.18
2018-07-17T15:11:31.301Z,100721.09
2018-07-17T15:14:37.899Z,100709.70
2018-07-17T15:17:42.961Z,100700.36
2018-07-17T15:20:48.084Z,100709.92
2018-07-17T15:23:54.195Z,100709.62
2018-07-17T15:27:00.060Z,100718.06
2018-07-17T15:30:05.964Z,100710.02
2018-07-17T15:33:11.760Z,100710.21
2018-07-17T15:36:17.424Z,100707.93
2018-07-17T15:39:23.338Z,100712.41
2018-07-17T15:42:30.330Z,100710.97
2018-07-17T15:45:36.199Z,100710.97
2018-07-17T15:48:42.191Z,100710.32
2018-07-17T15:51:47.864Z,100708.49
2018-07-17T15:54:52.889Z,100710.12
2018-07-17T15:57:57.915Z,100702.84
2018-07-17T16:01:03.980Z,100719.02
2018-07-17T16:04:10.045Z,100718.39
2018-07-17T16:07:15.838Z,100721.09
2018-07-17T16:10:20.923Z,100715.66
2018-07-17T16:13:26.317Z,100713.92
2018-07-17T16:16:31.724Z,100711.67
2018-07-17T16:19:37.785Z,100706.94
2018-07-17T16:22:44.087Z,100708.66
2018-07-17T16:25:50.125Z,100705.39
2018-07-17T16:28:55.874Z,100699.38
2018-07-17T16:32:01.811Z,100702.68
2018-07-17T16:35:09.126Z,100707.55
2018-07-17T16:38:14.440Z,100702.84
2018-07-17T16:41:20.744Z,100698.81
2018-07-17T16:44:26.049Z,100700.72
2018-07-17T16:47:31.977Z,100703.09
2018-07-17T16:50:37.887Z,100707.64
2018-07-17T16:53:43.683Z,100702.37
2018-07-17T16:56:49.469Z,100705.59
2018-07-17T16:59:55.749Z,100705.20
2018-07-17T17:03:00.945Z,100700.19
2018-07-17T17:06:06.468Z,100697.15
2018-07-17T17:09:12.564Z,100703.51
2018-07-17T17:12:17.810Z,100702.61
2018-07-17T17:15:22.992Z,100702.36
2018-07-17T17:18:30.229Z,100701.77
2018-07-17T17:21:36.051Z,100704.33
2018-07-17T17:24:41.692Z,100699.97
2018-07-17T17:27:47.698Z,100705.65
2018-07-17T17:30:53.585Z,100701.78
2018-07-17T17:33:59.531Z,100699.59
2018-07-17T17:37:04.676Z,100699.98
2018-07-17T17:40:11.213Z,100702.40
2018-07-17T17:43:17.133Z,100704.30
2018-07-17T17:46:24.261Z,100706.36
2018-07-17T17:49:29.747Z,100716.48
2018-07-17T17:52:35.772Z,100714.23
2018-07-17T17:55:41.684Z,100712.98
2018-07-17T17:58:47.398Z,100714.69
2018-07-17T18:01:53.601Z,100715.61
2018-07-17T18:04:59.334Z,100717.63
2018-07-17T18:08:05.617Z,100723.77
2018-07-17T18:11:11.875Z,100722.54
2018-07-17T18:14:18.160Z,100721.91
2018-07-17T18:17:24.011Z,100730.19
2018-07-17T18:20:30.276Z,100731.23
2018-07-17T18:23:35.454Z,100734.55
2018-07-17T18:26:40.652Z,100730.15
2018-07-17T18:29:46.680Z,100737.12
2018-07-17T18:32:52.199Z,100734.03
2018-07-17T18:35:59.290Z,100738.33
2018-07-17T18:39:06.683Z,100743.30
2018-07-17T18:42:12.061Z,100752.90
2018-07-17T18:45:24.307Z,100754.70
2018-07-17T18:48:30.510Z,100750.28
2018-07-17T18:51:36.489Z,100758.86
2018-07-17T18:54:41.783Z,100760.22
2018-07-17T18:57:47.931Z,100768.94
2018-07-17T19:00:53.140Z,100773.56
2018-07-17T19:03:58.945Z,100768.16
2018-07-17T19:07:04.860Z,100774.23
2018-07-17T19:10:10.890Z,100772.73
2018-07-17T19:13:16.645Z,100771.75
2018-07-17T19:16:22.996Z,100778.84
2018-07-17T19:19:28.334Z,100778.98
2018-07-17T19:22:33.614Z,100778.81
2018-07-17T19:25:38.846Z,100780.44
2018-07-17T19:28:45.175Z,100783.53
2018-07-17T19:31:50.397Z,100780.20
2018-07-17T19:34:56.792Z,100779.51
2018-07-17T19:38:02.921Z,100780.78
2018-07-17T19:41:09.122Z,100791.56
2018-07-17T19:44:14.795Z,100797.91
2018-07-17T19:47:20.330Z,100802.93
2018-07-17T19:50:27.179Z,100810.37
2018-07-17T19:53:33.090Z,100819.83
2018-07-17T19:56:39.012Z,100826.35
2018-07-17T19:59:43.897Z,100837.11
2018-07-17T20:02:49.002Z,100837.70
2018-07-17T20:05:54.813Z,100843.56
2018-07-17T20:09:00.135Z,100848.91
2018-07-17T20:12:05.562Z,100853.64
2018-07-17T20:15:11.385Z,100861.14
2018-07-17T20:18:16.207Z,100870.25
2018-07-17T20:21:21.572Z,100873.34
2018-07-17T20:24:26.803Z,100881.63
2018-07-17T20:27:32.469Z,100887.81
2018-07-17T20:30:37.345Z,100889.09
2018-07-17T20:33:42.753Z,100900.45
2018-07-17T20:36:48.079Z,100897.73
2018-07-17T20:39:54.801Z,100902.94
2018-07-17T20:43:00.253Z,100914.63
2018-07-17T20:46:06.156Z,100910.81
2018-07-17T20:49:10.961Z,100915.79
2018-07-17T20:52:16.397Z,100911.00
2018-07-17T20:55:22.277Z,100920.54
2018-07-17T20:58:27.099Z,100916.84
2018-07-17T21:01:32.171Z,100920.05
2018-07-17T21:04:37.029Z,100918.14
2018-07-17T21:07:42.248Z,100914.41
2018-07-17T21:10:48.128Z,100919.73
2018-07-17T21:13:54.543Z,100922.23
2018-07-17T21:17:00.360Z,100926.10
2018-07-17T21:20:06.653Z,100928.11
2018-07-17T21:23:13.068Z,100927.72
2018-07-17T21:26:19.541Z,100926.28
2018-07-17T21:29:25.613Z,100926.62
2018-07-17T21:32:31.525Z,100935.09
2018-07-17T21:35:37.144Z,100933.50
2018-07-17T21:38:42.297Z,100941.77
2018-07-17T21:41:48.065Z,100946.45
2018-07-17T21:44:52.897Z,100942.59
2018-07-17T21:47:58.136Z,100942.05
2018-07-17T21:51:02.982Z,100948.14
2018-07-17T21:54:07.809Z,100949.36
2018-07-17T21:57:13.485Z,100952.59
2018-07-17T22:00:19.166Z,100950.38
2018-07-17T22:03:25.237Z,100955.39
2018-07-17T22:06:31.354Z,100951.28
2018-07-17T22:09:36.169Z,100951.90
2018-07-17T22:12:41.891Z,100957.99
2018-07-17T22:15:47.553Z,100963.83
2018-07-17T22:18:52.393Z,100962.80
2018-07-17T22:21:58.197Z,100971.88
2018-07-17T22:25:04.141Z,100973.63
2018-07-17T22:28:09.766Z,100967.05
2018-07-17T22:31:16.573Z,100958.52
2018-07-17T22:34:21.811Z,100959.63
2018-07-17T22:37:26.633Z,100961.17
2018-07-17T22:40:32.765Z,100961.79
2018-07-17T22:43:37.692Z,100969.42
2018-07-17T22:46:43.063Z,100967.42
2018-07-17T22:49:47.881Z,100969.83
2018-07-17T22:52:53.565Z,100963.55
2018-07-17T22:55:59.022Z,100966.77
2018-07-17T22:59:06.907Z,100967.39
2018-07-17T23:02:19.669Z,100958.53
2018-07-17T23:05:25.362Z,100961.72
2018-07-17T23:08:30.851Z,100958.91
2018-07-17T23:11:37.676Z,100959.04
2018-07-17T23:14:42.502Z,100957.53
2018-07-17T23:17:47.337Z,100961.23
2018-07-17T23:20:52.533Z,100953.99
2018-07-17T23:23:57.722Z,100962.91
2018-07-17T23:27:03.494Z,100959.95
2018-07-17T23:30:09.246Z,100963.05
2018-07-17T23:33:14.986Z,100961.05
2018-07-17T23:36:21.733Z,100961.05
2018-07-17T23:39:27.001Z,100962.25
2018-07-17T23:42:31.857Z,100963.31
2018-07-17T23:45:37.037Z,100972.58
2018-07-17T23:48:42.790Z,100969.77
2018-07-17T23:51:47.627Z,100979.84
2018-07-17T23:54:52.929Z,100974.08
2018-07-17T23:57:57.771Z,100981.18
